createdAt,value
2018-05-19T00:00:33.019Z,11.20
2018-05-19T00:03:08.369Z,11.10
2018-05-19T00:05:43.024Z,11.10
2018-05-19T00:08:17.642Z,11.10
2018-05-19T00:10:52.232Z,11.10
2018-05-19T00:13:26.878Z,11.00
2018-05-19T00:16:01.416Z,11.00
2018-05-19T00:18:36.042Z,11.00
2018-05-19T00:21:10.667Z,10.90
2018-05-19T00:23:45.411Z,10.90
2018-05-19T00:26:20.720Z,10.80
2018-05-19T00:28:55.306Z,10.80
2018-05-19T00:31:29.962Z,10.80
2018-05-19T00:34:05.394Z,10.70
2018-05-19T00:36:40.039Z,10.70
2018-05-19T00:39:14.659Z,10.70
2018-05-19T00:41:49.332Z,10.70
2018-05-19T00:44:24.017Z,10.60
2018-05-19T00:46:58.702Z,10.60
2018-05-19T00:49:33.229Z,10.60
2018-05-19T00:52:07.945Z,10.60
2018-05-19T00:54:54.765Z,10.50
2018-05-19T00:57:29.489Z,10.50
2018-05-19T01:00:03.676Z,10.50
2018-05-19T01:02:38.347Z,10.50
2018-05-19T01:05:12.992Z,10.50
2018-05-19T01:07:47.683Z,10.40
2018-05-19T01:10:22.283Z,10.40
2018-05-19T01:12:57.018Z,10.50
2018-05-19T01:15:31.675Z,10.40
2018-05-19T01:18:06.701Z,10.40
2018-05-19T01:20:41.567Z,10.40
2018-05-19T01:23:16.257Z,10.40
2018-05-19T01:25:50.840Z,10.40
2018-05-19T01:28:26.160Z,10.40
2018-05-19T01:31:00.730Z,10.40
2018-05-19T01:33:35.439Z,10.40
2018-05-19T01:36:10.008Z,10.30
2018-05-19T01:38:44.767Z,10.30
2018-05-19T01:41:19.349Z,10.40
2018-05-19T01:43:57.864Z,10.40
2018-05-19T01:46:32.523Z,10.40
2018-05-19T01:49:07.189Z,10.30
2018-05-19T01:51:41.764Z,10.30
2018-05-19T01:54:16.493Z,10.40
2018-05-19T01:56:51.134Z,10.40
2018-05-19T01:59:25.734Z,10.40
2018-05-19T02:02:00.689Z,10.40
2018-05-19T02:04:36.226Z,10.40
2018-05-19T02:07:10.840Z,10.40
2018-05-19T02:09:45.459Z,10.30
2018-05-19T02:12:20.061Z,10.30
2018-05-19T02:14:54.683Z,10.30
2018-05-19T02:17:30.062Z,10.10
2018-05-19T02:20:04.688Z,10.10
2018-05-19T02:22:39.214Z,10.20
2018-05-19T02:25:13.851Z,10.20
2018-05-19T02:27:48.429Z,10.10
2018-05-19T02:30:23.070Z,10.20
2018-05-19T02:32:57.924Z,10.20
2018-05-19T02:35:32.689Z,10.40
2018-05-19T02:38:07.265Z,10.40
2018-05-19T02:40:42.017Z,10.40
2018-05-19T02:43:17.431Z,10.40
2018-05-19T02:45:52.219Z,10.40
2018-05-19T02:48:26.800Z,10.40
2018-05-19T02:51:01.401Z,10.40
2018-05-19T02:53:36.250Z,10.40
2018-05-19T02:56:11.079Z,10.40
2018-05-19T02:58:46.519Z,10.40
2018-05-19T03:01:21.831Z,10.40
2018-05-19T03:03:56.440Z,10.30
2018-05-19T03:06:30.991Z,10.40
2018-05-19T03:09:05.115Z,10.40
2018-05-19T03:11:40.446Z,10.30
2018-05-19T03:14:15.091Z,10.30
2018-05-19T03:16:49.663Z,10.40
2018-05-19T03:19:24.412Z,10.30
2018-05-19T03:21:59.319Z,10.40
2018-05-19T03:24:34.703Z,10.30
2018-05-19T03:27:09.304Z,10.30
2018-05-19T03:29:43.927Z,10.30
2018-05-19T03:32:18.609Z,10.30
2018-05-19T03:34:53.434Z,10.30
2018-05-19T03:37:28.082Z,10.30
2018-05-19T03:40:02.811Z,10.20
2018-05-19T03:42:37.743Z,10.10
2018-05-19T03:45:13.223Z,9.90
2018-05-19T03:47:48.664Z,10.10
2018-05-19T03:50:23.237Z,10.10
2018-05-19T03:52:57.869Z,10.10
2018-05-19T03:55:32.453Z,10.10
2018-05-19T03:58:18.354Z,10.10
2018-05-19T04:01:04.201Z,10.20
2018-05-19T04:03:38.995Z,10.20
2018-05-19T04:06:13.557Z,10.20
2018-05-19T04:08:48.181Z,10.30
2018-05-19T04:11:22.840Z,10.40
2018-05-19T04:13:57.598Z,10.30
2018-05-19T04:16:32.351Z,10.40
2018-05-19T04:19:07.152Z,10.60
2018-05-19T04:21:42.836Z,10.70
2018-05-19T04:24:18.396Z,10.70
2018-05-19T04:26:53.166Z,10.70
2018-05-19T04:29:28.472Z,10.60
2018-05-19T04:32:03.114Z,10.60
2018-05-19T04:34:37.890Z,10.80
2018-05-19T04:37:13.267Z,10.90
2018-05-19T04:39:48.785Z,10.90
2018-05-19T04:42:17.879Z,10.80
2018-05-19T04:44:52.524Z,10.90
2018-05-19T04:47:27.549Z,10.90
2018-05-19T04:50:02.364Z,10.90
2018-05-19T04:52:36.923Z,11.00
2018-05-19T04:55:11.848Z,11.10
2018-05-19T04:57:46.539Z,11.20
2018-05-19T05:00:21.049Z,11.00
2018-05-19T05:02:55.762Z,11.00
2018-05-19T05:05:33.252Z,11.10
2018-05-19T05:08:07.922Z,11.00
2018-05-19T05:10:42.461Z,11.10
2018-05-19T05:13:17.222Z,11.10
2018-05-19T05:15:51.928Z,11.10
2018-05-19T05:18:26.559Z,11.10
2018-05-19T05:21:01.208Z,11.20
2018-05-19T05:23:36.502Z,11.30
2018-05-19T05:26:11.235Z,11.30
2018-05-19T05:28:46.061Z,11.40
2018-05-19T05:31:21.635Z,11.70
2018-05-19T05:33:56.401Z,11.70
2018-05-19T05:36:31.944Z,12.00
2018-05-19T05:39:06.633Z,12.00
2018-05-19T05:41:42.056Z,12.00
2018-05-19T05:44:16.799Z,11.90
2018-05-19T05:46:51.617Z,12.00
2018-05-19T05:49:26.238Z,11.90
2018-05-19T05:52:00.911Z,11.90
2018-05-19T05:54:30.857Z,12.00
2018-05-19T05:57:05.500Z,11.90
2018-05-19T05:59:40.163Z,11.90
2018-05-19T06:02:14.992Z,12.00
2018-05-19T06:04:50.500Z,12.00
2018-05-19T06:07:26.029Z,12.00
2018-05-19T06:10:00.867Z,12.00
2018-05-19T06:12:35.542Z,12.10
2018-05-19T06:15:10.323Z,12.10
2018-05-19T06:17:45.016Z,12.20
2018-05-19T06:20:20.182Z,12.30
2018-05-19T06:22:54.849Z,12.40
2018-05-19T06:25:30.269Z,12.50
2018-05-19T06:28:04.865Z,12.50
2018-05-19T06:30:39.556Z,12.60
2018-05-19T06:33:14.253Z,12.80
2018-05-19T06:35:49.813Z,12.90
2018-05-19T06:38:24.389Z,12.90
2018-05-19T06:40:59.124Z,12.80
2018-05-19T06:43:33.726Z,12.90
2018-05-19T06:46:08.222Z,13.00
2018-05-19T06:48:42.931Z,13.10
2018-05-19T06:51:17.703Z,13.20
2018-05-19T06:53:52.446Z,13.20
2018-05-19T06:56:27.827Z,13.10
2018-05-19T06:58:56.912Z,13.10
2018-05-19T07:01:31.564Z,13.00
2018-05-19T07:04:11.276Z,13.10
2018-05-19T07:06:46.837Z,13.10
2018-05-19T07:09:21.445Z,13.10
2018-05-19T07:11:55.812Z,13.30
2018-05-19T07:14:30.393Z,13.40
2018-05-19T07:17:05.230Z,13.30
2018-05-19T07:19:40.861Z,13.30
2018-05-19T07:22:15.584Z,13.30
2018-05-19T07:24:50.338Z,13.30
2018-05-19T07:27:25.807Z,13.50
2018-05-19T07:30:00.862Z,13.40
2018-05-19T07:32:36.266Z,13.60
2018-05-19T07:35:10.893Z,13.60
2018-05-19T07:37:45.566Z,13.70
2018-05-19T07:40:20.204Z,13.80
2018-05-19T07:42:55.067Z,13.70
2018-05-19T07:45:30.523Z,13.90
2018-05-19T07:48:06.114Z,13.70
2018-05-19T07:50:40.839Z,13.70
2018-05-19T07:53:15.435Z,13.70
2018-05-19T07:55:50.468Z,13.80
2018-05-19T07:58:25.115Z,13.90
2018-05-19T08:01:00.110Z,13.80
2018-05-19T08:03:34.741Z,14.00
2018-05-19T08:06:10.192Z,14.20
2018-05-19T08:08:44.795Z,14.20
2018-05-19T08:11:20.260Z,14.50
2018-05-19T08:13:55.160Z,14.40
2018-05-19T08:16:29.921Z,14.60
2018-05-19T08:19:04.600Z,14.40
2018-05-19T08:21:39.142Z,14.60
2018-05-19T08:24:13.911Z,14.80
2018-05-19T08:26:48.562Z,14.90
2018-05-19T08:29:23.318Z,15.00
2018-05-19T08:31:57.855Z,15.10
2018-05-19T08:34:32.659Z,15.30
2018-05-19T08:37:07.447Z,15.20
2018-05-19T08:39:42.849Z,15.40
2018-05-19T08:42:19.201Z,15.10
2018-05-19T08:44:54.149Z,15.10
2018-05-19T08:47:28.863Z,15.10
2018-05-19T08:50:03.673Z,15.10
2018-05-19T08:52:38.411Z,15.10
2018-05-19T08:55:13.964Z,15.20
2018-05-19T08:57:48.680Z,15.20
2018-05-19T09:00:23.566Z,15.00
2018-05-19T09:02:58.311Z,15.20
2018-05-19T09:05:33.265Z,15.40
2018-05-19T09:08:09.047Z,15.70
2018-05-19T09:10:43.877Z,15.70
2018-05-19T09:13:18.803Z,15.80
2018-05-19T09:15:53.796Z,15.80
2018-05-19T09:18:28.548Z,15.70
2018-05-19T09:21:03.333Z,15.70
2018-05-19T09:23:37.961Z,15.60
2018-05-19T09:26:12.724Z,15.70
2018-05-19T09:28:47.512Z,15.60
2018-05-19T09:31:22.303Z,16.00
2018-05-19T09:33:57.191Z,16.20
2018-05-19T09:36:31.829Z,16.30
2018-05-19T09:39:05.826Z,16.60
2018-05-19T09:41:40.395Z,16.30
2018-05-19T09:44:15.829Z,16.30
2018-05-19T09:46:50.540Z,16.30
2018-05-19T09:49:25.567Z,15.80
2018-05-19T09:52:03.495Z,15.70
2018-05-19T09:54:37.916Z,15.90
2018-05-19T09:57:13.505Z,15.70
2018-05-19T09:59:48.287Z,15.70
2018-05-19T10:02:22.804Z,15.40
2018-05-19T10:04:57.517Z,15.40
2018-05-19T10:07:32.443Z,15.50
2018-05-19T10:10:06.425Z,15.60
2018-05-19T10:12:41.475Z,16.10
2018-05-19T10:15:16.311Z,16.40
2018-05-19T10:17:51.205Z,16.70
2018-05-19T10:20:25.787Z,16.80
2018-05-19T10:23:00.442Z,16.90
2018-05-19T10:25:36.075Z,16.50
2018-05-19T10:28:11.685Z,16.10
2018-05-19T10:30:46.456Z,16.10
2018-05-19T10:33:21.016Z,16.10
2018-05-19T10:35:55.770Z,16.10
2018-05-19T10:38:30.428Z,16.10
2018-05-19T10:41:04.974Z,16.20
2018-05-19T10:43:39.717Z,15.80
2018-05-19T10:46:14.312Z,16.10
2018-05-19T10:48:49.005Z,16.20
2018-05-19T10:51:23.580Z,16.20
2018-05-19T10:53:58.190Z,16.40
2018-05-19T10:56:33.595Z,16.60
2018-05-19T10:59:08.151Z,16.60
2018-05-19T11:01:42.839Z,16.90
2018-05-19T11:04:17.485Z,17.00
2018-05-19T11:06:52.253Z,16.90
2018-05-19T11:09:26.905Z,17.00
2018-05-19T11:12:01.703Z,16.90
2018-05-19T11:14:36.324Z,16.70
2018-05-19T11:17:11.105Z,16.90
2018-05-19T11:19:46.220Z,16.90
2018-05-19T11:22:21.687Z,17.10
2018-05-19T11:24:56.427Z,17.10
2018-05-19T11:27:31.231Z,17.20
2018-05-19T11:30:05.926Z,17.30
2018-05-19T11:32:40.594Z,17.20
2018-05-19T11:35:15.157Z,17.00
2018-05-19T11:37:49.756Z,16.70
2018-05-19T11:40:24.591Z,16.20
2018-05-19T11:42:59.343Z,16.60
2018-05-19T11:45:33.965Z,16.80
2018-05-19T11:48:08.616Z,16.40
2018-05-19T11:50:44.096Z,16.60
2018-05-19T11:53:19.810Z,17.20
2018-05-19T11:55:54.651Z,17.20
2018-05-19T11:58:29.379Z,17.80
2018-05-19T12:01:04.027Z,17.80
2018-05-19T12:03:38.821Z,17.60
2018-05-19T12:06:13.798Z,17.60
2018-05-19T12:08:48.505Z,17.40
2018-05-19T12:11:23.072Z,17.20
2018-05-19T12:13:57.675Z,17.30
2018-05-19T12:16:32.352Z,17.50
2018-05-19T12:19:07.070Z,17.50
2018-05-19T12:21:42.618Z,17.50
2018-05-19T12:24:18.107Z,17.80
2018-05-19T12:26:53.127Z,17.80
2018-05-19T12:29:28.147Z,17.60
2018-05-19T12:32:02.824Z,17.70
2018-05-19T12:34:38.336Z,18.00
2018-05-19T12:37:13.790Z,18.10
2018-05-19T12:39:48.455Z,18.10
2018-05-19T12:42:23.771Z,18.50
2018-05-19T12:44:58.611Z,18.50
2018-05-19T12:47:33.310Z,18.60
2018-05-19T12:50:08.805Z,18.40
2018-05-19T12:52:43.325Z,18.40
2018-05-19T12:55:17.750Z,18.20
2018-05-19T12:57:52.475Z,18.10
2018-05-19T13:00:27.090Z,17.80
2018-05-19T13:03:01.767Z,17.70
2018-05-19T13:05:36.404Z,17.50
2018-05-19T13:08:11.055Z,17.60
2018-05-19T13:10:45.729Z,17.90
2018-05-19T13:13:20.308Z,18.40
2018-05-19T13:15:55.086Z,18.90
2018-05-19T13:18:29.919Z,19.30
2018-05-19T13:21:04.754Z,19.40
2018-05-19T13:23:39.647Z,19.30
2018-05-19T13:26:14.288Z,18.90
2018-05-19T13:28:49.120Z,18.80
2018-05-19T13:31:23.708Z,19.00
2018-05-19T13:33:58.396Z,18.60
2018-05-19T13:36:33.045Z,18.40
2018-05-19T13:39:13.545Z,18.60
2018-05-19T13:41:48.149Z,18.50
2018-05-19T13:44:22.829Z,18.40
2018-05-19T13:46:58.333Z,19.00
2018-05-19T13:49:33.267Z,19.00
2018-05-19T13:52:08.160Z,19.10
2018-05-19T13:54:43.083Z,19.20
2018-05-19T13:57:17.674Z,19.40
2018-05-19T13:59:53.128Z,19.40
2018-05-19T14:02:27.993Z,19.40
2018-05-19T14:05:02.600Z,19.60
2018-05-19T14:07:37.113Z,19.40
2018-05-19T14:10:11.764Z,19.60
2018-05-19T14:12:46.445Z,19.50
2018-05-19T14:15:21.019Z,19.90
2018-05-19T14:17:55.733Z,20.00
2018-05-19T14:20:30.350Z,19.80
2018-05-19T14:23:05.813Z,20.50
2018-05-19T14:25:40.548Z,20.50
2018-05-19T14:28:15.273Z,20.60
2018-05-19T14:30:50.882Z,20.20
2018-05-19T14:33:26.347Z,19.80
2018-05-19T14:36:01.139Z,19.80
2018-05-19T14:38:36.077Z,20.00
2018-05-19T14:41:10.599Z,20.10
2018-05-19T14:43:45.264Z,20.10
2018-05-19T14:46:20.646Z,20.40
2018-05-19T14:48:55.360Z,20.30
2018-05-19T14:51:29.970Z,20.30
2018-05-19T14:54:04.649Z,20.20
2018-05-19T14:56:39.403Z,20.40
2018-05-19T14:59:14.204Z,20.60
2018-05-19T15:01:53.008Z,20.50
2018-05-19T15:04:28.539Z,20.70
2018-05-19T15:07:03.448Z,20.70
2018-05-19T15:09:38.019Z,20.70
2018-05-19T15:12:12.721Z,21.00
2018-05-19T15:14:47.437Z,21.30
2018-05-19T15:17:22.051Z,21.50
2018-05-19T15:19:56.715Z,21.60
2018-05-19T15:22:31.251Z,21.30
2018-05-19T15:25:05.944Z,20.90
2018-05-19T15:27:40.703Z,21.10
2018-05-19T15:30:15.438Z,21.30
2018-05-19T15:32:50.363Z,21.30
2018-05-19T15:35:25.054Z,21.70
2018-05-19T15:37:59.920Z,21.80
2018-05-19T15:40:34.794Z,22.10
2018-05-19T15:43:09.629Z,22.00
2018-05-19T15:45:44.357Z,22.00
2018-05-19T15:48:19.153Z,21.60
2018-05-19T15:50:54.039Z,21.90
2018-05-19T15:53:29.562Z,22.40
2018-05-19T15:56:04.301Z,22.40
2018-05-19T15:58:39.023Z,22.50
2018-05-19T16:01:13.712Z,22.40
2018-05-19T16:03:48.402Z,22.40
2018-05-19T16:06:23.920Z,22.20
2018-05-19T16:08:58.575Z,22.20
2018-05-19T16:11:33.420Z,22.60
2018-05-19T16:14:08.213Z,22.90
2018-05-19T16:16:43.277Z,23.20
2018-05-19T16:19:19.659Z,23.00
2018-05-19T16:21:54.358Z,23.10
2018-05-19T16:24:29.007Z,23.40
2018-05-19T16:27:03.853Z,23.50
2018-05-19T16:29:38.981Z,24.00
2018-05-19T16:32:13.672Z,24.00
2018-05-19T16:34:49.996Z,24.30
2018-05-19T16:37:24.744Z,24.30
2018-05-19T16:39:59.432Z,24.00
2018-05-19T16:42:34.113Z,23.70
2018-05-19T16:45:08.683Z,23.60
2018-05-19T16:47:43.496Z,23.20
2018-05-19T16:50:18.069Z,22.70
2018-05-19T16:52:53.406Z,22.80
2018-05-19T16:55:28.733Z,23.00
2018-05-19T16:58:04.199Z,22.90
2018-05-19T17:00:38.887Z,22.90
2018-05-19T17:03:13.444Z,22.50
2018-05-19T17:05:48.087Z,21.80
2018-05-19T17:08:22.618Z,21.60
2018-05-19T17:10:57.402Z,21.70
2018-05-19T17:13:32.170Z,21.80
2018-05-19T17:16:06.884Z,21.90
2018-05-19T17:18:41.474Z,21.80
2018-05-19T17:21:16.213Z,22.00
2018-05-19T17:23:51.072Z,22.30
2018-05-19T17:26:25.883Z,22.30
2018-05-19T17:29:01.513Z,21.70
2018-05-19T17:31:36.045Z,21.70
2018-05-19T17:34:10.735Z,21.50
2018-05-19T17:36:45.532Z,21.40
2018-05-19T17:39:20.495Z,21.60
2018-05-19T17:41:55.346Z,21.90
2018-05-19T17:44:30.371Z,21.80
2018-05-19T17:47:05.823Z,21.50
2018-05-19T17:49:40.530Z,21.50
2018-05-19T17:52:15.475Z,21.40
2018-05-19T17:54:50.123Z,21.30
2018-05-19T17:57:25.656Z,20.80
2018-05-19T18:00:00.389Z,20.80
2018-05-19T18:02:34.945Z,20.60
2018-05-19T18:05:09.801Z,20.50
2018-05-19T18:07:44.735Z,20.40
2018-05-19T18:10:19.492Z,20.50
2018-05-19T18:12:54.301Z,20.20
2018-05-19T18:15:29.495Z,20.20
2018-05-19T18:18:04.100Z,20.10
2018-05-19T18:20:38.890Z,20.10
2018-05-19T18:23:13.461Z,20.20
2018-05-19T18:25:48.058Z,20.00
2018-05-19T18:28:22.854Z,19.90
2018-05-19T18:30:57.107Z,19.80
2018-05-19T18:33:31.978Z,19.60
2018-05-19T18:36:06.581Z,19.40
2018-05-19T18:38:41.259Z,19.20
2018-05-19T18:41:15.977Z,19.10
2018-05-19T18:43:50.527Z,19.00
2018-05-19T18:46:25.112Z,18.80
2018-05-19T18:48:59.835Z,18.80
2018-05-19T18:51:34.475Z,18.60
2018-05-19T18:54:09.424Z,18.50
2018-05-19T18:56:44.276Z,18.50
2018-05-19T18:59:18.867Z,18.30
2018-05-19T19:01:53.733Z,18.20
2018-05-19T19:04:28.531Z,18.10
2018-05-19T19:07:03.414Z,18.00
2018-05-19T19:09:38.819Z,17.90
2018-05-19T19:12:13.967Z,17.90
2018-05-19T19:14:48.845Z,17.80
2018-05-19T19:17:23.619Z,17.70
2018-05-19T19:19:59.193Z,17.40
2018-05-19T19:22:34.023Z,17.40
2018-05-19T19:25:09.360Z,17.10
2018-05-19T19:27:44.122Z,17.10
2018-05-19T19:30:18.840Z,17.10
2018-05-19T19:32:53.427Z,16.90
2018-05-19T19:35:29.017Z,16.80
2018-05-19T19:38:03.624Z,16.80
2018-05-19T19:40:38.258Z,16.80
2018-05-19T19:43:12.868Z,16.70
2018-05-19T19:45:47.515Z,16.60
2018-05-19T19:48:22.255Z,16.50
2018-05-19T19:50:57.010Z,16.50
2018-05-19T19:53:31.757Z,16.40
2018-05-19T19:56:06.441Z,16.30
2018-05-19T19:58:41.184Z,16.30
2018-05-19T20:01:15.885Z,16.30
2018-05-19T20:03:50.772Z,16.10
2018-05-19T20:06:25.584Z,16.00
2018-05-19T20:09:00.419Z,16.00
2018-05-19T20:11:35.092Z,16.00
2018-05-19T20:14:09.827Z,15.90
2018-05-19T20:16:44.743Z,15.90
2018-05-19T20:19:19.472Z,15.90
2018-05-19T20:21:53.993Z,15.80
2018-05-19T20:24:28.605Z,15.90
2018-05-19T20:27:04.123Z,15.80
2018-05-19T20:29:38.836Z,15.80
2018-05-19T20:32:13.393Z,15.60
2018-05-19T20:34:48.049Z,15.70
2018-05-19T20:37:22.596Z,15.70
2018-05-19T20:39:57.169Z,15.70
2018-05-19T20:42:32.667Z,15.60
2018-05-19T20:45:08.427Z,15.40
2018-05-19T20:47:43.251Z,15.40
2018-05-19T20:50:18.164Z,15.40
2018-05-19T20:52:53.567Z,15.40
2018-05-19T20:55:28.536Z,15.40
2018-05-19T20:58:03.932Z,15.40
2018-05-19T21:00:38.570Z,15.40
2018-05-19T21:03:13.474Z,15.30
2018-05-19T21:05:48.304Z,15.30
2018-05-19T21:08:23.025Z,15.30
2018-05-19T21:10:58.901Z,15.20
2018-05-19T21:13:33.621Z,15.20
2018-05-19T21:16:08.397Z,15.20
2018-05-19T21:18:43.576Z,15.10
2018-05-19T21:21:18.414Z,15.10
2018-05-19T21:23:53.784Z,15.00
2018-05-19T21:26:28.474Z,15.00
2018-05-19T21:29:03.176Z,15.00
2018-05-19T21:31:38.633Z,14.80
2018-05-19T21:34:14.011Z,14.80
2018-05-19T21:36:48.795Z,14.80
2018-05-19T21:39:23.447Z,14.80
2018-05-19T21:41:58.104Z,14.80
2018-05-19T21:44:33.025Z,14.80
2018-05-19T21:47:07.789Z,14.70
2018-05-19T21:49:42.975Z,14.70
2018-05-19T21:52:17.521Z,14.60
2018-05-19T21:54:52.151Z,14.70
2018-05-19T21:57:26.952Z,14.60
2018-05-19T22:00:02.523Z,14.50
2018-05-19T22:02:37.591Z,14.40
2018-05-19T22:05:12.322Z,14.40
2018-05-19T22:07:47.116Z,14.40
2018-05-19T22:10:21.938Z,14.30
2018-05-19T22:12:56.851Z,14.30
2018-05-19T22:15:31.867Z,14.30
2018-05-19T22:18:06.551Z,14.30
2018-05-19T22:20:41.275Z,14.30
2018-05-19T22:23:16.064Z,14.20
2018-05-19T22:25:50.738Z,14.20
2018-05-19T22:28:25.397Z,14.30
2018-05-19T22:31:00.025Z,14.20
2018-05-19T22:33:34.643Z,14.20
2018-05-19T22:36:09.346Z,14.20
2018-05-19T22:38:43.958Z,14.10
2018-05-19T22:41:18.555Z,14.10
2018-05-19T22:43:53.245Z,14.10
2018-05-19T22:46:28.145Z,14.10
2018-05-19T22:49:02.976Z,14.10
2018-05-19T22:51:37.932Z,14.00
2018-05-19T22:54:12.788Z,13.90
2018-05-19T22:56:47.838Z,13.90
2018-05-19T22:59:23.216Z,13.90
2018-05-19T23:01:57.826Z,13.90
2018-05-19T23:04:32.525Z,13.90
2018-05-19T23:07:07.243Z,13.80
2018-05-19T23:09:42.067Z,13.80
2018-05-19T23:12:17.382Z,13.70
2018-05-19T23:14:52.049Z,13.70
2018-05-19T23:17:26.704Z,13.70
2018-05-19T23:20:02.103Z,13.60
2018-05-19T23:22:44.953Z,13.60
2018-05-19T23:25:19.721Z,13.60
2018-05-19T23:27:55.175Z,13.50
2018-05-19T23:30:29.833Z,13.50
2018-05-19T23:33:04.460Z,13.50
2018-05-19T23:35:39.243Z,13.50
2018-05-19T23:38:14.005Z,13.40
2018-05-19T23:40:48.881Z,13.40
2018-05-19T23:43:24.164Z,13.30
2018-05-19T23:45:58.823Z,13.30
2018-05-19T23:48:34.415Z,13.30
2018-05-19T23:51:09.091Z,13.20
2018-05-19T23:53:44.286Z,13.20
2018-05-19T23:56:18.875Z,13.20
2018-05-19T23:58:54.268Z,13.20
